Time;durP1;ratioP1;P1;durP2;ratioP2;P2;SDS_P1;SDS_P2;PMS_P1;PMS_P2;Temp;Humidity;BMP_temperature;BMP_pressure;BME280_temperature;BME280_humidity;BME280_pressure;Samples;Min_cycle;Max_cycle;Signal;HPM_P1;HPM_P2
2021/12/10 00:02:22;;;;;;;10.15;6.53;;;2.70;99.90;;;;;;4993266;28;20034;-80
2021/12/10 00:04:47;;;;;;;9.68;6.07;;;2.70;99.90;;;;;;4987771;28;20057;-80
2021/12/10 00:07:19;;;;;;;7.97;3.15;;;2.60;99.90;;;;;;4976756;28;20083;-80
2021/12/10 00:09:48;;;;;;;12.45;6.93;;;2.60;99.90;;;;;;4976486;28;20037;-80
2021/12/10 00:12:25;;;;;;;8.77;6.32;;;2.60;99.90;;;;;;4989925;28;20565;-80
2021/12/10 00:14:50;;;;;;;9.60;5.70;;;2.50;99.90;;;;;;4968620;28;20045;-80
2021/12/10 00:17:16;;;;;;;8.57;5.95;;;2.60;99.90;;;;;;5007976;28;20835;-80
2021/12/10 00:19:47;;;;;;;9.02;5.70;;;2.50;99.90;;;;;;4992155;28;20053;-81
2021/12/10 00:22:19;;;;;;;7.40;5.25;;;2.50;99.90;;;;;;4988150;28;20061;-80
2021/12/10 00:24:46;;;;;;;7.68;3.85;;;2.50;99.90;;;;;;4990851;28;20034;-80
2021/12/10 00:27:12;;;;;;;10.80;7.15;;;2.60;99.90;;;;;;4992219;28;20498;-80
2021/12/10 00:29:42;;;;;;;10.18;5.55;;;2.60;99.90;;;;;;4969110;28;20451;-80
2021/12/10 00:32:17;;;;;;;6.68;4.97;;;2.60;99.90;;;;;;5001655;28;20029;-80
2021/12/10 00:34:47;;;;;;;9.98;7.22;;;2.50;99.90;;;;;;4991116;28;20367;-80
2021/12/10 00:37:14;;;;;;;12.63;6.80;;;2.50;99.90;;;;;;4974459;28;21624;-80
2021/12/10 00:39:49;;;;;;;9.00;5.57;;;2.60;99.90;;;;;;4973651;28;20105;-80
2021/12/10 00:42:16;;;;;;;12.75;6.20;;;2.60;99.90;;;;;;4991019;28;20057;-81
2021/12/10 00:44:43;;;;;;;10.88;4.93;;;2.60;99.90;;;;;;4975467;28;20084;-80
2021/12/10 00:47:09;;;;;;;13.07;5.95;;;2.60;99.90;;;;;;4988893;28;20042;-80
2021/12/10 00:49:34;;;;;;;10.32;5.80;;;2.70;99.90;;;;;;5005745;28;20132;-80
2021/12/10 00:52:00;;;;;;;11.32;6.43;;;2.70;99.90;;;;;;4975661;28;20537;-80
2021/12/10 00:54:25;;;;;;;11.80;6.93;;;2.70;99.90;;;;;;4961989;28;20029;-80
2021/12/10 00:56:51;;;;;;;9.55;6.55;;;2.70;99.90;;;;;;4973637;28;20524;-80
2021/12/10 00:59:19;;;;;;;11.40;6.53;;;2.70;99.90;;;;;;4975157;28;20032;-80
2021/12/10 01:01:44;;;;;;;14.93;8.10;;;2.70;99.90;;;;;;4985811;28;20030;-81
2021/12/10 01:04:22;;;;;;;18.33;7.13;;;2.70;99.90;;;;;;5002107;28;20126;-80
2021/12/10 01:06:49;;;;;;;9.45;5.55;;;2.70;99.90;;;;;;4988459;28;20096;-80
2021/12/10 01:09:17;;;;;;;13.05;7.57;;;2.80;99.90;;;;;;5005004;28;20034;-80
2021/12/10 01:11:50;;;;;;;14.30;7.10;;;2.80;99.90;;;;;;4975699;28;20037;-80
2021/12/10 01:14:26;;;;;;;9.50;5.57;;;2.80;99.90;;;;;;4984926;28;20034;-80
2021/12/10 01:25:12;;;;;;;9.30;6.00;;;2.80;99.90;;;;;;5004313;28;20032;-80
2021/12/10 01:27:40;;;;;;;11.45;6.95;;;2.80;99.90;;;;;;4987929;28;20541;-80
2021/12/10 01:30:06;;;;;;;12.07;6.97;;;2.90;99.90;;;;;;4971163;28;20071;-80
2021/12/10 01:32:36;;;;;;;16.27;6.88;;;2.90;99.90;;;;;;5002907;28;20120;-80
2021/12/10 01:35:03;;;;;;;8.75;6.53;;;2.90;99.90;;;;;;4989334;28;20029;-80
2021/12/10 01:37:28;;;;;;;11.80;7.13;;;2.90;99.90;;;;;;4988265;28;20029;-80
2021/12/10 01:39:55;;;;;;;9.98;6.35;;;2.90;99.90;;;;;;5006931;28;20037;-80
2021/12/10 01:44:54;;;;;;;10.52;6.25;;;2.80;99.90;;;;;;5006105;28;20037;-80
2021/12/10 01:47:23;;;;;;;14.02;7.30;;;2.90;99.90;;;;;;4984605;28;20041;-80
2021/12/10 01:49:49;;;;;;;10.85;6.43;;;2.90;99.90;;;;;;5004291;28;20037;-80
2021/12/10 01:52:15;;;;;;;13.80;6.68;;;2.90;99.90;;;;;;4991026;28;20566;-80
2021/12/10 01:54:44;;;;;;;5.70;3.88;;;2.80;99.90;;;;;;4986779;28;20048;-80
2021/12/10 01:57:11;;;;;;;11.73;7.60;;;2.80;99.90;;;;;;4969842;28;20481;-80
2021/12/10 01:59:36;;;;;;;12.60;6.68;;;2.80;99.90;;;;;;4989322;28;20049;-80
2021/12/10 02:02:10;;;;;;;12.35;5.75;;;2.70;99.90;;;;;;4984531;28;20543;-80
2021/12/10 02:04:36;;;;;;;9.25;4.47;;;2.70;99.90;;;;;;4989411;28;20681;-80
2021/12/10 02:07:02;;;;;;;11.65;7.03;;;2.70;99.90;;;;;;4973815;28;20041;-80
2021/12/10 02:09:28;;;;;;;13.10;6.43;;;2.70;99.90;;;;;;4971181;28;20541;-80
2021/12/10 02:11:53;;;;;;;5.55;3.17;;;2.60;99.90;;;;;;5000638;28;20048;-80
2021/12/10 02:14:20;;;;;;;13.68;6.90;;;2.60;99.90;;;;;;5002909;28;20041;-80
2021/12/10 02:16:45;;;;;;;10.43;6.15;;;2.60;99.90;;;;;;4974606;28;20033;-80
2021/12/10 02:19:12;;;;;;;9.18;5.68;;;2.60;99.90;;;;;;5004800;28;20720;-80
2021/12/10 02:21:39;;;;;;;7.22;5.05;;;2.50;99.90;;;;;;4970374;28;20029;-80
2021/12/10 02:24:05;;;;;;;16.52;7.05;;;2.50;99.90;;;;;;4989482;28;20029;-80
2021/12/10 02:26:42;;;;;;;13.70;5.18;;;2.50;99.90;;;;;;4985306;28;20038;-80
2021/12/10 02:29:08;;;;;;;8.55;5.43;;;2.40;99.90;;;;;;4983292;28;20108;-80
2021/12/10 02:31:34;;;;;;;10.50;5.57;;;2.40;99.90;;;;;;4975115;28;20109;-80
2021/12/10 02:34:01;;;;;;;11.65;6.18;;;2.40;99.90;;;;;;4974806;28;20025;-80
2021/12/10 02:36:27;;;;;;;9.98;5.25;;;2.40;99.90;;;;;;4985328;28;20036;-80
2021/12/10 02:38:53;;;;;;;9.73;5.20;;;2.30;99.90;;;;;;4978778;28;20029;-80
2021/12/10 02:41:20;;;;;;;6.63;3.17;;;2.40;99.90;;;;;;4990894;28;20120;-80
2021/12/10 02:43:45;;;;;;;9.07;5.22;;;2.40;99.90;;;;;;4965632;28;20477;-80
2021/12/10 02:46:11;;;;;;;9.13;4.80;;;2.30;99.90;;;;;;4969718;28;20032;-80
2021/12/10 02:48:37;;;;;;;8.43;5.65;;;2.30;99.90;;;;;;4969628;28;20331;-80
2021/12/10 02:51:03;;;;;;;9.57;4.65;;;2.30;99.90;;;;;;4973393;28;20033;-80
2021/12/10 02:53:34;;;;;;;9.77;4.80;;;2.20;99.90;;;;;;4988806;28;20049;-80
2021/12/10 02:55:59;;;;;;;10.20;6.18;;;2.20;99.90;;;;;;4984903;28;20033;-80
2021/12/10 02:58:25;;;;;;;12.20;5.72;;;2.20;99.90;;;;;;4987751;28;20094;-80
2021/12/10 03:01:07;;;;;;;9.43;4.97;;;2.10;99.90;;;;;;4997695;28;20101;-80
2021/12/10 03:03:35;;;;;;;12.95;5.20;;;2.10;99.90;;;;;;5006933;28;20033;-80
2021/12/10 03:06:00;;;;;;;12.02;4.15;;;2.10;99.90;;;;;;4987707;28;20061;-80
2021/12/10 03:08:26;;;;;;;10.63;4.45;;;2.10;99.90;;;;;;4972786;28;20068;-80
2021/12/10 03:10:51;;;;;;;13.57;4.22;;;2.10;99.90;;;;;;4990252;28;20041;-80
2021/12/10 03:13:17;;;;;;;6.05;4.40;;;2.10;99.90;;;;;;5004659;28;20045;-80
2021/12/10 03:15:43;;;;;;;10.15;3.95;;;2.10;99.90;;;;;;4988104;28;20037;-80
2021/12/10 03:18:10;;;;;;;15.25;3.90;;;2.10;99.90;;;;;;5001806;28;20098;-80
2021/12/10 03:20:36;;;;;;;4.72;2.80;;;2.20;99.90;;;;;;4970856;28;20482;-80
2021/12/10 03:23:02;;;;;;;8.35;4.00;;;2.20;99.90;;;;;;5005229;28;20091;-80
2021/12/10 03:25:28;;;;;;;5.78;3.08;;;2.10;99.90;;;;;;4987310;28;20036;-80
2021/12/10 03:27:53;;;;;;;8.52;3.50;;;2.20;99.90;;;;;;4974748;28;20026;-80
2021/12/10 03:30:22;;;;;;;8.48;2.78;;;2.20;99.90;;;;;;5000127;28;20048;-80
2021/12/10 03:32:48;;;;;;;11.25;3.60;;;2.20;99.90;;;;;;5001234;28;20033;-80
2021/12/10 03:35:18;;;;;;;10.13;3.50;;;2.10;99.90;;;;;;4989783;28;20033;-80
2021/12/10 03:37:45;;;;;;;5.85;3.20;;;2.10;99.90;;;;;;4991909;28;20037;-80
2021/12/10 03:40:12;;;;;;;9.38;3.25;;;2.10;99.90;;;;;;4993554;28;20519;-80
2021/12/10 03:42:38;;;;;;;7.90;3.65;;;2.10;99.90;;;;;;4991971;28;20033;-80
2021/12/10 03:45:06;;;;;;;9.77;3.70;;;2.00;99.90;;;;;;4973346;28;20022;-79
2021/12/10 03:47:31;;;;;;;4.45;2.15;;;2.00;99.90;;;;;;4978896;28;20461;-80
2021/12/10 03:49:57;;;;;;;8.68;3.50;;;2.00;99.90;;;;;;4992015;28;20065;-80
2021/12/10 03:52:22;;;;;;;10.27;3.65;;;2.00;99.90;;;;;;4974476;28;20048;-80
2021/12/10 03:54:48;;;;;;;9.88;2.88;;;1.90;99.90;;;;;;4988852;28;20049;-80
2021/12/10 03:57:13;;;;;;;10.15;3.05;;;1.90;99.90;;;;;;4979351;28;20038;-80
2021/12/10 03:59:39;;;;;;;6.65;2.70;;;1.90;99.90;;;;;;5006935;28;20040;-80
2021/12/10 04:02:06;;;;;;;8.70;3.00;;;1.90;99.90;;;;;;4992680;28;20397;-83
2021/12/10 04:04:35;;;;;;;8.82;3.13;;;1.90;99.90;;;;;;4972349;28;20072;-83
2021/12/10 04:07:03;;;;;;;8.52;2.85;;;1.80;99.90;;;;;;4988553;28;20576;-83
2021/12/10 04:09:29;;;;;;;9.98;2.78;;;1.80;99.90;;;;;;4971041;28;20033;-82
2021/12/10 04:11:55;;;;;;;9.02;3.10;;;1.80;99.90;;;;;;4990433;28;20033;-83
2021/12/10 04:14:21;;;;;;;6.32;2.45;;;1.90;99.90;;;;;;4973840;28;20087;-83
2021/12/10 04:16:53;;;;;;;8.43;1.98;;;1.90;99.90;;;;;;4970660;28;20041;-83
2021/12/10 04:19:19;;;;;;;8.90;1.92;;;1.90;99.90;;;;;;5006296;28;20040;-83
2021/12/10 04:21:44;;;;;;;6.07;2.90;;;1.90;99.90;;;;;;4978070;28;20029;-83
2021/12/10 04:24:16;;;;;;;7.93;2.30;;;1.80;99.90;;;;;;5007082;28;20068;-83
2021/12/10 04:26:42;;;;;;;5.78;1.70;;;1.80;99.90;;;;;;4973764;28;20049;-83
2021/12/10 04:29:07;;;;;;;8.18;2.50;;;1.80;99.90;;;;;;5003466;28;20026;-83
2021/12/10 04:31:33;;;;;;;6.78;2.53;;;1.80;99.90;;;;;;5005158;28;20136;-82
2021/12/10 04:33:58;;;;;;;8.60;2.50;;;1.80;99.90;;;;;;4976565;28;20490;-82
2021/12/10 04:36:24;;;;;;;12.30;2.70;;;1.70;99.90;;;;;;4973332;28;20414;-83
2021/12/10 04:38:50;;;;;;;9.90;2.40;;;1.70;99.90;;;;;;5002874;28;20041;-83
2021/12/10 04:41:15;;;;;;;7.07;2.08;;;1.70;99.90;;;;;;5004241;28;20682;-83
2021/12/10 04:43:42;;;;;;;8.65;2.03;;;1.70;99.90;;;;;;4974969;28;20465;-83
2021/12/10 04:46:07;;;;;;;14.43;2.17;;;1.70;99.90;;;;;;5002214;28;20436;-82
2021/12/10 04:48:54;;;;;;;5.85;1.60;;;1.60;99.90;;;;;;4974065;28;20030;-83
2021/12/10 04:51:22;;;;;;;4.47;1.90;;;1.60;99.90;;;;;;4981377;28;20113;-83
2021/12/10 04:53:48;;;;;;;7.50;1.98;;;1.60;99.90;;;;;;5007791;28;20037;-83
2021/12/10 04:56:14;;;;;;;13.55;1.90;;;1.60;99.90;;;;;;4978545;28;20117;-83
2021/12/10 04:58:39;;;;;;;13.38;3.22;;;1.50;99.90;;;;;;4986051;28;20117;-83
2021/12/10 05:01:05;;;;;;;5.70;1.95;;;1.30;99.90;;;;;;4971669;28;20022;-83
2021/12/10 05:03:30;;;;;;;7.07;1.58;;;1.40;99.90;;;;;;4977079;28;20029;-82
2021/12/10 05:06:01;;;;;;;8.63;2.00;;;1.30;99.90;;;;;;4982680;28;20046;-83
2021/12/10 05:08:27;;;;;;;4.65;1.58;;;1.30;99.90;;;;;;4993967;28;20028;-82
2021/12/10 05:10:52;;;;;;;10.00;2.00;;;1.40;99.90;;;;;;4983610;28;20022;-82
2021/12/10 05:13:18;;;;;;;10.38;1.45;;;1.40;99.90;;;;;;4980922;28;20116;-82
2021/12/10 05:15:44;;;;;;;9.63;2.20;;;1.20;99.90;;;;;;4974122;28;20030;-82
2021/12/10 05:18:12;;;;;;;9.63;1.60;;;1.10;99.90;;;;;;4988256;28;20037;-82
2021/12/10 05:20:39;;;;;;;6.85;1.90;;;1.10;99.90;;;;;;4988803;28;20033;-83
2021/12/10 05:23:04;;;;;;;7.18;1.30;;;1.10;99.90;;;;;;5006904;28;20036;-82
2021/12/10 05:25:30;;;;;;;8.50;2.15;;;1.20;99.90;;;;;;4988567;28;20038;-82
2021/12/10 05:27:56;;;;;;;11.55;4.32;;;1.20;99.90;;;;;;4971381;28;20036;-82
2021/12/10 05:30:23;;;;;;;9.05;1.85;;;0.80;99.90;;;;;;4984737;28;20755;-82
2021/12/10 05:32:49;;;;;;;4.18;1.50;;;1.10;99.90;;;;;;4975100;28;20458;-82
2021/12/10 05:35:14;;;;;;;6.78;2.47;;;1.10;99.90;;;;;;4975779;28;20040;-82
2021/12/10 05:37:40;;;;;;;6.55;2.30;;;1.10;99.90;;;;;;4991866;28;20037;-82
2021/12/10 05:40:06;;;;;;;7.38;1.80;;;1.00;99.90;;;;;;5007293;28;20040;-82
2021/12/10 05:42:32;;;;;;;11.32;2.10;;;1.00;99.90;;;;;;4989084;28;20339;-82
2021/12/10 05:44:57;;;;;;;9.43;1.70;;;0.90;99.90;;;;;;4990039;28;20025;-82
2021/12/10 05:47:23;;;;;;;9.27;2.75;;;1.00;99.90;;;;;;4985492;28;20038;-82
2021/12/10 05:49:49;;;;;;;7.22;1.98;;;1.00;99.90;;;;;;4999377;28;20033;-81
2021/12/10 05:52:15;;;;;;;8.68;2.17;;;1.10;99.90;;;;;;4983874;28;20041;-82
2021/12/10 05:54:40;;;;;;;6.07;1.92;;;1.10;99.90;;;;;;4989982;28;20040;-82
2021/12/10 05:57:06;;;;;;;8.45;2.67;;;1.10;99.90;;;;;;4989221;28;20053;-82
2021/12/10 05:59:32;;;;;;;6.35;1.95;;;1.00;99.90;;;;;;4989757;28;20030;-82
2021/12/10 06:01:57;;;;;;;10.52;1.63;;;1.10;99.90;;;;;;4991277;28;20078;-82
2021/12/10 06:04:27;;;;;;;11.63;2.55;;;1.20;99.90;;;;;;4973592;28;20516;-82
2021/12/10 06:06:53;;;;;;;6.45;2.42;;;1.20;99.90;;;;;;5001626;28;20032;-82
2021/12/10 06:09:19;;;;;;;9.30;2.42;;;1.20;99.90;;;;;;4984602;28;20104;-83
2021/12/10 06:11:44;;;;;;;6.10;1.90;;;1.20;99.90;;;;;;4984353;28;20028;-82
2021/12/10 06:14:10;;;;;;;14.73;2.85;;;1.30;99.90;;;;;;4986010;28;20022;-82
2021/12/10 06:16:35;;;;;;;6.53;2.40;;;1.40;99.90;;;;;;4982190;28;20041;-82
2021/12/10 06:19:01;;;;;;;5.07;1.70;;;1.30;99.90;;;;;;5005274;28;20041;-82
2021/12/10 06:21:27;;;;;;;7.22;1.88;;;1.40;99.90;;;;;;4993148;28;20030;-82
2021/12/10 06:23:53;;;;;;;8.18;2.70;;;1.50;99.90;;;;;;4984424;28;20038;-82
2021/12/10 06:26:19;;;;;;;11.35;2.78;;;1.60;99.90;;;;;;4976618;28;20045;-82
2021/12/10 06:28:45;;;;;;;8.45;2.33;;;1.60;99.90;;;;;;4983770;28;20569;-82
2021/12/10 06:31:13;;;;;;;3.47;1.00;;;1.50;99.90;;;;;;4990203;28;20029;-82
2021/12/10 06:33:38;;;;;;;12.55;2.80;;;1.50;99.90;;;;;;4985786;28;21092;-83
2021/12/10 06:36:05;;;;;;;8.15;2.00;;;1.60;99.90;;;;;;5001849;28;20033;-81
2021/12/10 06:38:30;;;;;;;6.93;3.50;;;1.60;99.90;;;;;;4989287;28;20061;-82
2021/12/10 06:40:56;;;;;;;7.82;2.33;;;1.60;99.90;;;;;;4969690;28;20062;-82
2021/12/10 06:43:22;;;;;;;7.80;2.38;;;1.60;99.90;;;;;;4988279;28;20056;-82
2021/12/10 06:45:48;;;;;;;6.68;1.95;;;1.60;99.90;;;;;;5001933;28;20029;-82
2021/12/10 06:48:14;;;;;;;4.78;2.13;;;1.50;99.90;;;;;;5001260;28;20038;-82
2021/12/10 06:50:51;;;;;;;13.43;2.33;;;1.50;99.90;;;;;;4985924;28;20036;-82
2021/12/10 06:53:19;;;;;;;8.35;2.20;;;1.50;99.90;;;;;;4976415;28;20564;-82
2021/12/10 06:55:44;;;;;;;10.38;2.53;;;1.50;99.90;;;;;;5002216;28;20542;-83
2021/12/10 06:58:10;;;;;;;3.20;1.48;;;1.40;99.90;;;;;;5000574;28;20037;-82
2021/12/10 07:00:40;;;;;;;6.60;2.03;;;1.40;99.90;;;;;;4975075;28;20030;-82
2021/12/10 07:03:06;;;;;;;11.07;2.50;;;1.50;99.90;;;;;;5004233;28;20087;-82
2021/12/10 07:05:32;;;;;;;6.80;1.90;;;1.50;99.90;;;;;;4971833;28;20033;-82
2021/12/10 07:07:57;;;;;;;6.43;2.20;;;1.50;99.90;;;;;;5001828;28;20029;-82
2021/12/10 07:10:23;;;;;;;4.70;1.92;;;1.50;99.90;;;;;;4973343;28;20056;-82
2021/12/10 07:12:48;;;;;;;6.50;2.47;;;1.40;99.90;;;;;;4993656;28;20045;-82
2021/12/10 07:15:15;;;;;;;8.00;1.92;;;1.30;99.90;;;;;;4988198;28;20030;-82
2021/12/10 07:17:42;;;;;;;5.25;1.63;;;1.40;99.90;;;;;;4990738;28;20426;-82
2021/12/10 07:20:08;;;;;;;3.17;2.08;;;1.40;99.90;;;;;;4990488;28;20045;-81
2021/12/10 07:22:33;;;;;;;6.97;2.13;;;1.50;99.90;;;;;;4986671;28;20501;-82
2021/12/10 07:24:59;;;;;;;8.80;2.10;;;1.50;99.90;;;;;;4984598;28;20037;-81
2021/12/10 07:27:25;;;;;;;6.97;2.22;;;1.60;99.90;;;;;;4975564;28;20036;-82
2021/12/10 07:29:50;;;;;;;11.20;1.85;;;1.50;99.90;;;;;;5003458;28;20067;-81
2021/12/10 07:32:16;;;;;;;7.63;2.70;;;1.50;99.90;;;;;;5007773;28;20022;-81
2021/12/10 07:34:42;;;;;;;11.40;1.83;;;1.50;99.90;;;;;;5006486;28;20485;-81
2021/12/10 07:37:09;;;;;;;13.75;2.58;;;1.40;99.90;;;;;;5006169;28;20405;-81
2021/12/10 07:39:35;;;;;;;8.38;1.67;;;1.50;99.90;;;;;;4990706;28;20024;-82
2021/12/10 07:42:02;;;;;;;3.63;2.00;;;1.40;99.90;;;;;;4991356;28;20021;-82
2021/12/10 07:44:27;;;;;;;8.95;2.00;;;1.40;99.90;;;;;;4989509;28;20130;-81
2021/12/10 07:46:55;;;;;;;5.53;1.65;;;1.50;99.90;;;;;;4976145;28;20579;-81
2021/12/10 07:49:28;;;;;;;3.72;1.38;;;1.40;99.90;;;;;;5006787;28;20033;-81
2021/12/10 07:51:54;;;;;;;8.23;2.08;;;1.40;99.90;;;;;;5010054;28;20428;-81
2021/12/10 07:54:29;;;;;;;11.16;2.06;;;1.50;99.90;;;;;;4879962;28;10001027;-81
2021/12/10 07:56:54;;;;;;;6.82;1.40;;;1.60;99.90;;;;;;4659907;28;10000332;-82
2021/12/10 07:59:20;;;;;;;6.60;1.83;;;1.50;99.90;;;;;;4992015;28;20036;-81
2021/12/10 08:01:46;;;;;;;8.77;2.03;;;1.50;99.90;;;;;;4992119;28;20498;-81
2021/12/10 08:04:12;;;;;;;11.45;2.22;;;1.60;99.90;;;;;;4990898;28;20171;-81
2021/12/10 08:06:38;;;;;;;6.70;2.03;;;1.60;99.90;;;;;;5009513;28;20033;-81
2021/12/10 08:09:05;;;;;;;9.00;2.15;;;1.50;99.90;;;;;;4993026;28;20113;-81
2021/12/10 08:11:30;;;;;;;10.75;1.92;;;1.80;99.90;;;;;;5004038;28;20084;-81
2021/12/10 08:13:57;;;;;;;5.15;1.70;;;1.80;99.90;;;;;;4984037;28;20026;-81
2021/12/10 08:16:23;;;;;;;4.50;1.77;;;1.90;99.90;;;;;;4977204;28;20096;-81
2021/12/10 08:18:49;;;;;;;6.30;1.90;;;1.80;99.90;;;;;;4987498;28;20511;-81
2021/12/10 08:21:17;;;;;;;7.55;1.80;;;2.00;99.90;;;;;;4988342;28;20034;-81
2021/12/10 08:23:42;;;;;;;8.00;2.10;;;2.10;99.90;;;;;;4993265;28;20030;-81
2021/12/10 08:26:09;;;;;;;11.38;2.15;;;1.90;99.90;;;;;;4988653;28;20091;-81
2021/12/10 08:28:34;;;;;;;6.80;1.73;;;1.90;99.90;;;;;;4993970;28;20049;-82
2021/12/10 08:31:00;;;;;;;7.05;1.48;;;2.00;99.90;;;;;;4979680;28;20053;-81
2021/12/10 08:33:26;;;;;;;7.20;1.88;;;1.90;99.90;;;;;;4989942;28;20486;-81
2021/12/10 08:35:54;;;;;;;4.82;1.52;;;2.20;99.90;;;;;;4975122;28;20490;-81
2021/12/10 08:38:20;;;;;;;13.23;2.00;;;2.20;99.90;;;;;;4962945;28;20038;-82
2021/12/10 08:40:49;;;;;;;6.15;1.58;;;2.30;99.90;;;;;;5006020;28;20040;-82
2021/12/10 08:43:14;;;;;;;6.72;1.90;;;2.20;99.90;;;;;;5007535;28;20079;-82
2021/12/10 08:45:40;;;;;;;10.20;1.92;;;2.30;99.90;;;;;;4975208;28;20045;-82
2021/12/10 08:48:06;;;;;;;10.95;2.13;;;2.40;99.90;;;;;;4980474;28;20037;-82
2021/12/10 08:50:31;;;;;;;10.25;1.73;;;2.40;99.90;;;;;;4994226;28;20385;-82
2021/12/10 08:52:59;;;;;;;11.10;1.70;;;2.40;99.90;;;;;;4990794;28;20160;-82
2021/12/10 08:55:27;;;;;;;4.15;1.23;;;2.50;99.90;;;;;;4994599;28;20037;-82
2021/12/10 08:57:53;;;;;;;9.82;1.48;;;2.60;99.90;;;;;;4976116;28;20056;-82
2021/12/10 09:00:20;;;;;;;3.60;1.48;;;2.50;99.90;;;;;;4977269;28;20041;-82
2021/12/10 09:02:49;;;;;;;6.10;1.45;;;2.60;99.90;;;;;;4994428;28;20725;-82
2021/12/10 09:05:14;;;;;;;4.32;1.50;;;2.70;99.90;;;;;;4976918;28;20040;-82
2021/12/10 09:07:43;;;;;;;4.47;1.52;;;2.90;99.90;;;;;;4994499;28;20042;-82
2021/12/10 09:10:09;;;;;;;6.78;1.42;;;2.90;99.90;;;;;;5006846;28;20558;-82
2021/12/10 09:12:35;;;;;;;6.90;1.80;;;3.00;99.90;;;;;;5006138;28;20109;-82
2021/12/10 09:15:02;;;;;;;4.43;1.40;;;3.00;99.90;;;;;;5008752;28;20034;-81
2021/12/10 09:17:29;;;;;;;3.53;1.25;;;3.30;99.90;;;;;;4979745;28;20062;-82
2021/12/10 09:19:58;;;;;;;6.88;1.40;;;3.30;99.90;;;;;;4993842;28;20048;-82
2021/12/10 09:22:25;;;;;;;3.88;0.77;;;3.30;99.90;;;;;;4992320;28;20033;-81
2021/12/10 09:24:54;;;;;;;7.03;1.63;;;3.40;99.90;;;;;;5005473;28;20064;-82
2021/12/10 09:27:19;;;;;;;4.82;1.13;;;3.50;99.90;;;;;;4993012;28;20030;-82
2021/12/10 09:29:45;;;;;;;7.68;1.20;;;3.60;99.90;;;;;;4976510;28;20042;-82
2021/12/10 09:32:13;;;;;;;5.35;1.33;;;3.70;99.90;;;;;;4974892;28;20056;-82
2021/12/10 09:34:39;;;;;;;4.22;1.42;;;3.70;99.90;;;;;;4991850;28;20056;-82
2021/12/10 09:37:05;;;;;;;3.92;1.30;;;3.90;99.90;;;;;;4974925;28;20033;-83
2021/12/10 09:39:32;;;;;;;7.25;1.23;;;4.00;99.90;;;;;;4975094;28;20056;-82
2021/12/10 09:41:57;;;;;;;7.55;1.17;;;4.00;99.90;;;;;;4993021;28;20033;-82
2021/12/10 09:44:23;;;;;;;3.63;1.00;;;4.30;99.90;;;;;;5006616;28;20500;-82
2021/12/10 09:46:49;;;;;;;4.78;0.80;;;4.40;99.90;;;;;;4989651;28;20037;-82
2021/12/10 09:49:15;;;;;;;3.85;1.33;;;4.30;99.90;;;;;;4972463;28;20402;-82
2021/12/10 09:51:47;;;;;;;5.50;1.38;;;4.40;99.90;;;;;;4977155;28;20040;-83
2021/12/10 09:54:14;;;;;;;1.77;0.95;;;4.40;99.90;;;;;;4977136;28;20031;-82
2021/12/10 09:56:42;;;;;;;5.78;1.27;;;4.40;99.90;;;;;;4993021;28;20050;-81
2021/12/10 09:59:08;;;;;;;4.70;1.40;;;4.40;99.90;;;;;;4972622;28;20037;-82
2021/12/10 10:01:36;;;;;;;4.80;1.33;;;4.30;99.90;;;;;;4994907;28;20033;-83
2021/12/10 10:04:02;;;;;;;6.35;1.20;;;4.30;99.90;;;;;;4988481;28;20515;-82
2021/12/10 10:06:29;;;;;;;6.95;1.60;;;4.30;99.90;;;;;;4974884;28;20033;-82
2021/12/10 10:08:54;;;;;;;1.88;0.60;;;4.50;99.90;;;;;;4989896;28;20109;-82
2021/12/10 10:11:23;;;;;;;7.68;1.60;;;4.60;99.90;;;;;;5007344;28;21050;-82
2021/12/10 10:13:50;;;;;;;6.80;1.15;;;4.80;99.90;;;;;;4976421;28;20055;-83
2021/12/10 10:16:15;;;;;;;7.47;1.45;;;4.90;99.90;;;;;;5008372;28;20029;-82
2021/12/10 10:18:42;;;;;;;4.80;1.20;;;4.80;99.90;;;;;;5008461;28;20532;-83
2021/12/10 10:21:11;;;;;;;5.88;1.60;;;4.90;99.90;;;;;;4975598;28;20060;-82
2021/12/10 10:23:41;;;;;;;4.38;1.52;;;5.00;99.90;;;;;;4973922;28;20038;-83
2021/12/10 10:26:10;;;;;;;6.05;0.98;;;4.90;99.90;;;;;;4992201;28;20049;-83
2021/12/10 10:28:35;;;;;;;6.00;1.55;;;4.90;99.90;;;;;;4990916;28;20034;-83
2021/12/10 10:31:04;;;;;;;3.58;1.23;;;5.00;99.90;;;;;;4990745;28;20044;-82
2021/12/10 10:33:32;;;;;;;3.25;1.23;;;5.00;99.90;;;;;;4976664;28;20029;-83
2021/12/10 10:35:59;;;;;;;5.35;1.35;;;5.00;99.90;;;;;;4974157;28;20041;-83
2021/12/10 10:38:25;;;;;;;5.38;0.85;;;5.10;99.90;;;;;;4989077;28;20037;-83
2021/12/10 10:40:57;;;;;;;2.30;0.77;;;5.00;99.90;;;;;;4990649;28;20489;-82
2021/12/10 10:43:24;;;;;;;5.55;1.70;;;4.90;99.90;;;;;;4974104;28;20026;-82
2021/12/10 10:45:49;;;;;;;6.38;1.13;;;5.20;99.90;;;;;;4990755;28;20117;-83
2021/12/10 10:48:16;;;;;;;9.40;1.40;;;5.30;99.90;;;;;;4976243;28;20112;-82
2021/12/10 10:50:52;;;;;;;5.80;1.30;;;5.30;99.90;;;;;;5007201;28;20498;-83
2021/12/10 10:53:21;;;;;;;7.35;1.30;;;5.00;99.90;;;;;;5007216;28;20783;-82
2021/12/10 10:55:54;;;;;;;2.15;1.17;;;5.00;99.90;;;;;;4974979;28;20494;-82
2021/12/10 10:58:22;;;;;;;5.57;1.10;;;5.10;99.90;;;;;;4984006;28;20034;-82
2021/12/10 11:01:01;;;;;;;3.42;1.05;;;5.30;99.90;;;;;;4970453;28;20463;-82
2021/12/10 11:03:36;;;;;;;2.20;1.27;;;5.30;99.90;;;;;;5001103;28;20040;-83
2021/12/10 11:06:02;;;;;;;6.53;1.40;;;5.50;99.90;;;;;;4988485;28;20187;-82
2021/12/10 11:08:39;;;;;;;6.38;1.33;;;5.50;99.90;;;;;;4991774;28;20037;-83
2021/12/10 11:11:06;;;;;;;2.65;1.42;;;5.50;99.90;;;;;;4989423;28;20038;-83
2021/12/10 11:13:32;;;;;;;6.40;1.17;;;5.90;99.90;;;;;;4988736;28;20033;-83
2021/12/10 11:16:01;;;;;;;3.88;1.20;;;5.80;99.90;;;;;;4982641;28;20034;-83
2021/12/10 11:18:27;;;;;;;5.50;1.20;;;5.90;99.90;;;;;;5023974;28;20041;-83
2021/12/10 11:20:52;;;;;;;4.80;1.13;;;5.90;99.90;;;;;;4985536;28;20516;-82
2021/12/10 11:23:20;;;;;;;9.40;1.45;;;6.10;99.90;;;;;;4971701;28;20041;-83
2021/12/10 11:25:49;;;;;;;8.02;1.40;;;6.10;99.90;;;;;;4972041;28;20064;-81
2021/12/10 11:28:18;;;;;;;6.25;1.00;;;6.20;99.90;;;;;;4971826;28;20038;-83
2021/12/10 11:30:46;;;;;;;2.22;1.08;;;6.20;99.90;;;;;;5006979;28;20592;-83
2021/12/10 11:33:19;;;;;;;3.70;0.90;;;6.10;99.90;;;;;;4972792;28;20477;-83
2021/12/10 11:35:56;;;;;;;5.05;1.00;;;6.40;99.90;;;;;;5008254;28;20176;-83
2021/12/10 11:38:31;;;;;;;4.53;0.80;;;6.20;99.90;;;;;;4986001;28;20749;-83
2021/12/10 11:41:02;;;;;;;3.20;0.80;;;6.20;99.90;;;;;;4991701;28;20393;-83
2021/12/10 11:46:30;;;;;;;3.50;0.80;;;6.40;99.90;;;;;;5002536;28;20489;-82
2021/12/10 11:49:18;;;;;;;4.00;1.00;;;6.20;99.90;;;;;;4990929;28;20053;-83
2021/12/10 11:51:50;;;;;;;2.75;0.55;;;6.20;99.90;;;;;;4981904;28;20555;-83
2021/12/10 11:54:31;;;;;;;2.53;1.10;;;6.30;99.90;;;;;;5005416;28;20037;-83
2021/12/10 11:57:13;;;;;;;2.92;1.05;;;6.20;99.90;;;;;;5007904;28;20608;-83
2021/12/10 11:59:48;;;;;;;3.88;0.73;;;6.30;99.90;;;;;;4991900;28;20030;-83
2021/12/10 12:02:20;;;;;;;6.93;1.40;;;6.20;99.90;;;;;;4978694;28;20693;-82
2021/12/10 12:04:48;;;;;;;3.78;0.82;;;6.20;99.90;;;;;;5026512;28;20030;-83
2021/12/10 12:07:19;;;;;;;4.65;0.70;;;6.20;99.90;;;;;;5005213;28;20029;-82
2021/12/10 12:09:51;;;;;;;4.53;0.80;;;6.30;99.90;;;;;;5024794;28;20040;-83
2021/12/10 12:12:19;;;;;;;3.47;0.85;;;6.20;99.90;;;;;;4993649;28;20026;-82
2021/12/10 12:14:53;;;;;;;4.45;0.77;;;6.20;99.90;;;;;;5010154;28;20525;-82
2021/12/10 12:17:36;;;;;;;4.70;0.98;;;6.20;99.90;;;;;;4977948;28;20049;-81
2021/12/10 12:20:04;;;;;;;3.80;1.77;;;6.10;99.90;;;;;;4982315;28;20045;-82
2021/12/10 12:25:25;;;;;;;7.28;1.23;;;6.10;99.90;;;;;;4995645;28;20052;-82
2021/12/10 12:28:05;;;;;;;6.35;0.77;;;6.10;99.90;;;;;;4992793;28;20170;-83
2021/12/10 12:30:30;;;;;;;5.72;1.60;;;6.10;99.90;;;;;;4991151;28;20363;-83
2021/12/10 12:32:56;;;;;;;2.20;0.90;;;6.00;99.90;;;;;;4977789;28;20040;-83
2021/12/10 12:35:31;;;;;;;4.18;1.33;;;6.00;99.90;;;;;;4976170;28;20669;-83
2021/12/10 12:38:08;;;;;;;4.38;1.17;;;6.00;99.90;;;;;;4989643;28;20037;-83
2021/12/10 12:40:34;;;;;;;7.68;1.58;;;6.00;99.90;;;;;;4990753;28;20629;-83
2021/12/10 12:43:04;;;;;;;7.80;1.33;;;6.00;99.90;;;;;;4994602;28;20109;-83
2021/12/10 12:45:31;;;;;;;5.88;1.08;;;6.00;99.90;;;;;;4993662;28;20025;-83
2021/12/10 12:47:56;;;;;;;2.88;0.85;;;5.90;99.90;;;;;;4986319;28;20088;-83
2021/12/10 12:50:31;;;;;;;6.10;1.23;;;5.90;99.90;;;;;;4991838;28;20033;-83
2021/12/10 12:53:03;;;;;;;5.77;1.17;;;5.90;99.90;;;;;;4969428;28;20044;-82
2021/12/10 12:55:45;;;;;;;2.92;1.13;;;5.90;99.90;;;;;;4991785;28;20106;-82
2021/12/10 12:58:14;;;;;;;3.28;0.88;;;5.90;99.90;;;;;;5004309;28;20063;-83
2021/12/10 13:01:09;;;;;;;3.05;0.90;;;5.90;99.90;;;;;;4999184;28;20496;-83
2021/12/10 13:03:35;;;;;;;4.97;0.95;;;5.80;99.90;;;;;;5011596;28;20183;-83
2021/12/10 13:06:19;;;;;;;6.43;1.20;;;5.90;99.90;;;;;;5024874;28;20120;-83
2021/12/10 13:08:53;;;;;;;3.63;1.38;;;5.90;99.90;;;;;;5005861;28;20042;-84
2021/12/10 13:11:28;;;;;;;4.20;1.33;;;5.80;99.90;;;;;;5001815;28;20072;-84
2021/12/10 13:14:18;;;;;;;5.37;1.20;;;5.80;99.90;;;;;;4987392;28;20041;-83
2021/12/10 13:16:46;;;;;;;1.42;0.95;;;5.90;99.90;;;;;;4991914;28;20826;-83